createdAt,value
2022-12-17T00:00:29.109Z,82.00
2022-12-17T00:03:16.714Z,83.60
2022-12-17T00:06:02.411Z,85.10
2022-12-17T00:08:48.033Z,86.60
2022-12-17T00:11:33.728Z,85.90
2022-12-17T00:14:19.245Z,85.90
2022-12-17T00:17:06.106Z,85.30
2022-12-17T00:19:51.782Z,85.60
2022-12-17T00:22:37.450Z,87.40
2022-12-17T00:25:23.282Z,87.80
2022-12-17T00:28:08.920Z,87.70
2022-12-17T00:31:05.940Z,87.30
2022-12-17T00:33:52.911Z,80.40
2022-12-17T00:36:39.342Z,80.10
2022-12-17T00:39:24.894Z,81.10
2022-12-17T00:42:10.513Z,81.70
2022-12-17T00:44:56.156Z,82.60
2022-12-17T00:47:41.534Z,81.40
2022-12-17T00:50:28.578Z,79.30
2022-12-17T00:53:14.211Z,78.00
2022-12-17T00:56:00.649Z,78.00
2022-12-17T00:58:46.124Z,78.40
2022-12-17T01:01:31.955Z,81.30
2022-12-17T01:04:17.274Z,83.00
2022-12-17T01:07:03.980Z,82.80
2022-12-17T01:09:49.474Z,82.50
2022-12-17T01:12:35.228Z,80.80
2022-12-17T01:15:20.852Z,75.70
2022-12-17T01:18:06.534Z,76.30
2022-12-17T01:20:52.133Z,77.70
2022-12-17T01:23:39.217Z,79.40
2022-12-17T01:26:25.038Z,77.50
2022-12-17T01:29:10.525Z,76.70
2022-12-17T01:32:04.411Z,76.60
2022-12-17T01:34:49.884Z,76.70
2022-12-17T01:37:35.406Z,77.30
2022-12-17T01:40:22.524Z,78.20
2022-12-17T01:43:08.042Z,78.90
2022-12-17T01:45:56.303Z,78.10
2022-12-17T01:48:48.777Z,78.80
2022-12-17T01:51:36.143Z,79.20
2022-12-17T01:54:22.933Z,79.80
2022-12-17T01:57:09.628Z,78.90
2022-12-17T02:00:01.992Z,76.30
2022-12-17T02:02:47.830Z,76.30
2022-12-17T02:05:39.038Z,76.70
2022-12-17T02:08:36.683Z,78.60
2022-12-17T02:11:32.315Z,78.50
2022-12-17T02:14:26.121Z,78.20
2022-12-17T02:17:17.207Z,75.50
2022-12-17T02:20:14.351Z,74.30
2022-12-17T02:23:09.959Z,74.90
2022-12-17T02:26:02.103Z,76.10
2022-12-17T02:28:49.962Z,76.90
2022-12-17T02:31:36.191Z,78.00
2022-12-17T02:34:21.864Z,80.20
2022-12-17T02:37:07.477Z,79.50
2022-12-17T02:39:52.960Z,76.80
2022-12-17T02:42:42.390Z,76.10
2022-12-17T02:45:29.677Z,77.30
2022-12-17T02:48:15.419Z,78.40
2022-12-17T02:51:01.394Z,79.40
2022-12-17T02:53:46.953Z,79.90
2022-12-17T02:56:32.419Z,80.00
2022-12-17T02:59:17.981Z,79.70
2022-12-17T03:02:04.974Z,78.60
2022-12-17T03:04:50.411Z,77.10
2022-12-17T03:07:35.886Z,73.70
2022-12-17T03:10:21.419Z,74.40
2022-12-17T03:13:07.177Z,74.20
2022-12-17T03:15:52.737Z,74.40
2022-12-17T03:18:39.398Z,73.90
2022-12-17T03:21:27.268Z,72.60
2022-12-17T03:24:12.772Z,73.00
2022-12-17T03:26:58.236Z,72.00
2022-12-17T03:29:43.899Z,71.50
2022-12-17T03:32:29.533Z,70.80
2022-12-17T03:35:16.161Z,72.40
2022-12-17T03:38:01.733Z,74.70
2022-12-17T03:40:47.215Z,75.20
2022-12-17T03:43:33.066Z,75.10
2022-12-17T03:46:18.777Z,73.60
2022-12-17T03:49:04.299Z,72.90
2022-12-17T03:51:50.772Z,73.30
2022-12-17T03:54:36.299Z,73.10
2022-12-17T03:57:18.286Z,72.90
2022-12-17T04:00:03.874Z,72.90
2022-12-17T14:06:19.577Z,43.80
2022-12-17T14:08:48.928Z,35.70
2022-12-17T14:11:34.677Z,38.40
2022-12-17T14:14:03.745Z,38.40
2022-12-17T14:16:31.959Z,41.60
2022-12-17T14:19:01.159Z,43.60
2022-12-17T14:21:31.206Z,43.50
2022-12-17T14:23:59.685Z,43.20
2022-12-17T14:26:27.708Z,43.60
2022-12-17T14:28:56.606Z,44.60
2022-12-17T14:31:28.711Z,45.70
2022-12-17T14:34:07.480Z,46.00
2022-12-17T14:36:39.100Z,45.70
2022-12-17T14:39:17.825Z,47.30
2022-12-17T14:42:03.728Z,48.80
2022-12-17T14:44:32.877Z,49.30
2022-12-17T14:47:17.006Z,49.70
2022-12-17T14:49:55.911Z,50.30
2022-12-17T14:52:37.714Z,49.60
2022-12-17T14:55:28.490Z,48.30
2022-12-17T14:58:14.985Z,48.50
2022-12-17T15:00:45.494Z,45.80
2022-12-17T15:03:19.638Z,46.50
2022-12-17T15:05:51.379Z,46.40
2022-12-17T15:08:21.615Z,45.60
2022-12-17T15:10:50.023Z,44.90
2022-12-17T15:13:18.019Z,44.40
2022-12-17T15:15:46.242Z,44.10
2022-12-17T15:18:14.485Z,43.40
2022-12-17T15:20:42.576Z,42.50
2022-12-17T15:23:16.742Z,40.30
2022-12-17T15:25:47.278Z,40.80
2022-12-17T15:28:17.349Z,42.10
2022-12-17T15:30:45.696Z,42.00
2022-12-17T15:33:13.896Z,42.60
2022-12-17T15:35:42.778Z,42.20
2022-12-17T15:38:12.708Z,41.30
2022-12-17T15:40:40.747Z,41.50
2022-12-17T15:43:13.953Z,41.20
2022-12-17T15:45:43.453Z,42.40
2022-12-17T15:48:12.546Z,43.50
2022-12-17T15:50:40.581Z,45.00
2022-12-17T15:53:09.265Z,46.40
2022-12-17T15:55:37.960Z,46.60
2022-12-17T15:58:06.794Z,47.00
2022-12-17T16:00:36.674Z,48.20
2022-12-17T16:03:05.128Z,48.20
2022-12-17T16:05:33.321Z,48.60
2022-12-17T16:08:02.585Z,48.00
2022-12-17T16:10:31.410Z,46.90
2022-12-17T16:12:59.610Z,45.00
2022-12-17T16:15:27.797Z,45.10
2022-12-17T16:17:57.524Z,47.00
2022-12-17T16:20:25.725Z,48.20
2022-12-17T16:22:53.766Z,48.00
2022-12-17T16:25:21.806Z,47.10
2022-12-17T16:27:49.865Z,46.40
2022-12-17T16:30:17.938Z,46.50
2022-12-17T16:32:46.003Z,44.80
2022-12-17T16:35:15.402Z,44.30
2022-12-17T16:37:43.461Z,42.10
2022-12-17T16:40:12.617Z,44.00
2022-12-17T16:42:40.666Z,45.00
2022-12-17T16:45:10.013Z,45.10
2022-12-17T16:47:38.057Z,45.40
2022-12-17T16:50:07.002Z,44.60
2022-12-17T16:52:36.724Z,42.70
2022-12-17T16:55:05.006Z,39.00
2022-12-17T16:57:32.950Z,39.20
2022-12-17T17:00:00.969Z,38.10
2022-12-17T17:02:29.113Z,36.50
2022-12-17T17:04:57.258Z,37.20
2022-12-17T17:07:25.257Z,37.50
2022-12-17T17:09:54.600Z,37.60
2022-12-17T17:12:23.330Z,37.40
2022-12-17T17:14:51.316Z,36.60
2022-12-17T17:17:19.315Z,35.40
2022-12-17T17:20:08.022Z,34.40
2022-12-17T17:22:36.074Z,33.10
2022-12-17T17:25:06.063Z,31.60
2022-12-17T17:27:34.189Z,32.50
2022-12-17T17:30:03.870Z,34.20
2022-12-17T17:32:32.227Z,35.70
2022-12-17T17:35:00.323Z,36.40
2022-12-17T17:37:28.919Z,37.20
2022-12-17T17:39:56.935Z,34.80
2022-12-17T17:42:26.303Z,33.70
2022-12-17T17:44:54.241Z,34.50
2022-12-17T17:47:22.245Z,34.60
2022-12-17T17:49:50.241Z,35.60
2022-12-17T17:52:18.289Z,35.00
2022-12-17T17:54:46.377Z,36.30
2022-12-17T17:57:14.367Z,37.20
2022-12-17T17:59:43.754Z,37.00
2022-12-17T18:02:12.507Z,36.50
2022-12-17T18:04:40.941Z,35.90
2022-12-17T18:07:25.956Z,32.90
2022-12-17T18:09:54.610Z,30.90
2022-12-17T18:12:39.796Z,31.50
2022-12-17T18:15:14.659Z,33.70
2022-12-17T18:17:43.870Z,35.30
2022-12-17T18:20:13.077Z,35.90
2022-12-17T18:22:41.204Z,38.90
2022-12-17T18:25:10.468Z,41.30
2022-12-17T18:27:38.559Z,44.50
2022-12-17T18:30:07.525Z,46.70
2022-12-17T18:32:36.941Z,45.90
2022-12-17T18:35:05.392Z,44.50
2022-12-17T18:37:33.467Z,44.10
2022-12-17T18:40:01.513Z,42.90
2022-12-17T18:42:47.007Z,43.00
2022-12-17T18:45:15.110Z,42.00
2022-12-17T18:47:44.734Z,42.10
2022-12-17T18:50:13.373Z,44.20
2022-12-17T18:52:41.682Z,45.60
2022-12-17T18:55:12.692Z,47.80
2022-12-17T18:57:40.856Z,49.80
2022-12-17T19:00:10.414Z,49.90
2022-12-17T19:02:38.538Z,45.80
2022-12-17T19:05:08.672Z,46.80
2022-12-17T19:07:36.849Z,46.90
2022-12-17T19:10:05.593Z,47.90
2022-12-17T19:12:33.597Z,46.90
2022-12-17T19:15:01.615Z,46.80
2022-12-17T19:17:29.598Z,42.80
2022-12-17T19:19:57.669Z,41.00
2022-12-17T19:22:27.206Z,39.90
2022-12-17T19:24:55.201Z,39.70
2022-12-17T19:27:23.175Z,41.00
2022-12-17T19:29:57.177Z,42.60
2022-12-17T19:32:25.267Z,45.50
2022-12-17T19:34:53.319Z,46.90
2022-12-17T19:37:21.345Z,45.90
2022-12-17T19:39:50.751Z,42.40
2022-12-17T19:42:32.075Z,38.80
2022-12-17T19:45:05.236Z,36.30
2022-12-17T19:47:33.406Z,33.80
2022-12-17T19:50:01.420Z,33.30
2022-12-17T19:52:29.489Z,34.60
2022-12-17T19:54:58.849Z,34.60
2022-12-17T19:57:26.865Z,29.80
2022-12-17T19:59:54.864Z,27.10
2022-12-17T20:02:25.008Z,28.60
2022-12-17T20:04:56.369Z,30.00
2022-12-17T20:07:24.364Z,31.10
2022-12-17T20:09:52.414Z,28.10
2022-12-17T20:12:21.816Z,27.70
2022-12-17T20:14:49.842Z,25.60
2022-12-17T20:17:17.851Z,25.00
2022-12-17T20:19:45.881Z,24.80
2022-12-17T20:22:13.930Z,24.90
2022-12-17T20:24:41.951Z,26.00
2022-12-17T20:27:10.912Z,27.70
2022-12-17T20:29:40.533Z,26.40
2022-12-17T20:32:09.050Z,25.30
2022-12-17T20:34:37.054Z,24.20
2022-12-17T20:37:05.015Z,24.30
2022-12-17T20:39:33.228Z,24.60
2022-12-17T20:42:01.270Z,25.00
2022-12-17T20:44:29.274Z,25.30
2022-12-17T20:46:58.643Z,26.30
2022-12-17T20:49:26.598Z,26.60
2022-12-17T20:51:54.593Z,25.60
2022-12-17T20:54:22.682Z,25.30
2022-12-17T20:56:51.367Z,24.50
2022-12-17T20:59:20.064Z,25.10
2022-12-17T21:01:54.252Z,25.40
2022-12-17T21:04:25.861Z,25.10
2022-12-17T21:06:54.276Z,25.20
2022-12-17T21:09:25.274Z,25.30
2022-12-17T21:11:53.407Z,25.20
2022-12-17T21:14:21.464Z,25.10
2022-12-17T21:16:49.915Z,25.30
2022-12-17T21:19:20.280Z,25.40
2022-12-17T21:21:49.876Z,24.60
2022-12-17T21:24:17.929Z,24.70
2022-12-17T21:26:47.844Z,24.70
2022-12-17T21:29:16.888Z,24.10
2022-12-17T21:31:47.003Z,23.30
2022-12-17T21:34:17.778Z,23.80
2022-12-17T21:36:45.914Z,23.40
2022-12-17T21:39:16.804Z,23.20
2022-12-17T21:42:03.405Z,23.90
2022-12-17T21:44:32.176Z,23.70
2022-12-17T21:47:00.367Z,23.90
2022-12-17T21:49:28.638Z,22.20
2022-12-17T21:51:59.191Z,22.10
2022-12-17T21:54:28.952Z,22.60
2022-12-17T21:56:57.226Z,22.70
2022-12-17T21:59:25.317Z,22.90
2022-12-17T22:01:54.282Z,22.50
2022-12-17T22:04:22.628Z,22.90
2022-12-17T22:06:59.342Z,23.40
2022-12-17T22:09:46.354Z,22.60
2022-12-17T22:12:37.777Z,22.40
2022-12-17T22:15:09.759Z,22.80
2022-12-17T22:17:39.220Z,23.60
2022-12-17T22:20:08.571Z,22.80
2022-12-17T22:22:36.766Z,22.90
2022-12-17T22:25:09.324Z,23.40
2022-12-17T22:27:38.529Z,23.60
2022-12-17T22:30:25.112Z,22.70
2022-12-17T22:33:12.939Z,23.20
2022-12-17T22:36:38.498Z,23.10
2022-12-17T22:41:29.027Z,24.10
2022-12-17T22:44:34.917Z,23.70
2022-12-17T22:44:51.577Z,23.80
2022-12-17T22:47:21.163Z,23.60
2022-12-17T22:49:49.745Z,24.40
2022-12-17T22:52:18.688Z,24.10
2022-12-17T22:54:48.130Z,23.60
2022-12-17T22:57:35.308Z,22.90
2022-12-17T23:00:16.508Z,21.10
2022-12-17T23:02:44.655Z,20.00
2022-12-17T23:05:12.840Z,21.40
2022-12-17T23:07:40.925Z,22.10
2022-12-17T23:10:09.908Z,22.20
2022-12-17T23:12:51.607Z,22.70
2022-12-17T23:15:21.198Z,23.00
2022-12-17T23:17:49.429Z,23.80
2022-12-17T23:20:17.694Z,22.80
2022-12-17T23:22:45.925Z,21.80
2022-12-17T23:25:14.566Z,22.60
2022-12-17T23:27:48.171Z,22.70
2022-12-17T23:30:17.682Z,23.20
2022-12-17T23:32:46.664Z,23.30
2022-12-17T23:35:15.291Z,23.40
2022-12-17T23:37:43.841Z,23.00
2022-12-17T23:40:13.643Z,23.40
2022-12-17T23:42:41.823Z,22.70
2022-12-17T23:45:12.105Z,21.70
2022-12-17T23:47:41.316Z,20.50
2022-12-17T23:50:11.511Z,20.90
2022-12-17T23:52:40.453Z,20.20
2022-12-17T23:55:09.245Z,20.80
2022-12-17T23:57:37.431Z,21.90
